KDAY/DAY METAR and TAF weather

Enter ICAO airport designator
Station Type Date Time Source
KDAY METAR 2018/01/19 16:56 UTC NOAA

KDAY 191656Z 21012KT 10SM FEW250 M02/M08 A3009 RMK AO2 SLP203 T10171083


Station Type Date Time Source
KDAY Decoded METAR 2018/01/19 16:56 UTC NOAA

COX DAYTON INTERNATIONAL, OH, United States (KDAY) 39-54N 084-13W 305M
Jan 19, 2018 - 11:56 AM EST / 2018.01.19 1656 UTC
Wind: from the SSW (210 degrees) at 14 MPH (12 KT):0
Visibility: 10 mile(s):0
Sky conditions: mostly clear
Temperature: 28.9 F (-1.7 C)
Windchill: 17 F (-8 C):1
Dew Point: 17.1 F (-8.3 C)
Relative Humidity: 60%
Pressure (altimeter): 30.09 in. Hg (1018 hPa)
ob: KDAY 191656Z 21012KT 10SM FEW250 M02/M08 A3009 RMK AO2 SLP203 T10171083
cycle: 17

Station Type Date Time Source
KDAY TAF 2018/01/19 18:22 UTC NOAA

TAF KDAY 191720Z 1918/2018 22013G20KT P6SM SCT250
FM192300 22014KT P6SM SCT250
FM201700 23011KT P6SM BKN020


Example: see airport list